Lexington, MA (02420)

1:11 AM EST on January 18, 2017 (GMT -0500)
Lexington Hi | | Change Station
Active Advisory: Small Craft Advisory Active Notice: Public Information Statement

Elev 226 ft 42.44 °N, 71.23 °W | Updated 31 seconds ago

Overcast
Overcast
33.4 °F
Feels Like 31 °F
N
3.1
Wind Variable Wind from East
Gusts 5.4 mph

Today
High -- | Low -- °F
--% Chance of Precip.
Yesterday
High -- | Low -- °F
Precip. -- in
Pressure 30.10 in
Visibility 5.0 miles
Clouds Overcast 500 ft
Windchill 31 °F
Dew Point 33 °F
Humidity 99%
Rainfall 0.04 in
Snow Depth Not available.
7:09 AM 4:41 PM
Waning Gibbous, 66% visible
METAR KBED 180556Z AUTO 06007KT 5SM -RA BR OVC005 01/00 A3005 RMK AO2 RAB25SNE25 CIG 004V008 SLP191 P0003 60035 I6000 T00110000 10028 20011 58020
Pressure 30.10 in
Visibility 5.0 miles
Clouds Overcast 500 ft
Windchill 31 °F
Dew Point 33 °F
Humidity 99%
Rainfall 0.04 in
Snow Depth Not available.
7:09 AM 4:41 PM
Waning Gibbous, 66% visible
METAR KBED 180556Z AUTO 06007KT 5SM -RA BR OVC005 01/00 A3005 RMK AO2 RAB25SNE25 CIG 004V008 SLP191 P0003 60035 I6000 T00110000 10028 20011 58020

Get Your Daily Forecast Email!

Thanks for signing up!

Be on the lookout for a verification email in your inbox.

You'll start receiving the daily forecast at 8 AM.

×

10-Day Weather Forecast

Almanac

Astronomy

Jan. 18, 2017 Rise Set
Actual Time
Civil Twilight
Nautical Twilight
Astronomical Twilight
Moon
Length of Visible Light
Length of Day
Tomorrow will be .
, % of the Moon is Illuminated

Today's Extremes

State Highs State Lows

Community

WunderPhotos

Upload Photos

1,962,540 photos uploaded!

WunderBlog® & News

Nearby

Air Quality

  Air Quality AQ Index Pollutant
Not available.

Snow Depth

Station Depth Elevation

Earthquake Activity

City Distance Mag. Time & Date
Minimum magnitude displayed is 2.5.

Coastal Water Temperatures

Place Temperature

Stations

Nearby Weather Stations

Station Location Temp. Windchill Dew Point Humidity Wind Precip. Elev Updated Type
                   

Watches & Warnings

Small Craft Advisory
Issued: 3:45 PM EST Jan. 17, 2017 – National Weather Service

... Small Craft Advisory remains in effect from 11 PM this evening
to 7 PM EST Wednesday...

* winds and seas... east winds 10 to 20 kt with gusts up to 25
kt. Seas 2 to 4 feet.

Precautionary/preparedness actions...

A Small Craft Advisory means that wind speeds of 25 to 33 knots
are expected to produce hazardous wave conditions to small craft.
Inexperienced mariners... especially those operating smaller
vessels should avoid navigating in these conditions.



For the latest updates... please visit our webpage at
www.Weather.Gov/Boston

You can follow US on facebook at